Time;durP1;ratioP1;P1;durP2;ratioP2;P2;SDS_P1;SDS_P2;PMS_P1;PMS_P2;Temp;Humidity;BMP_temperature;BMP_pressure;BME280_temperature;BME280_humidity;BME280_pressure;Samples;Min_cycle;Max_cycle;Signal;HPM_P1;HPM_P2
2022/11/13 05:02:58;;;;;;;10.97;9.27;;;3.30;99.90;;;;;;4965215;28;20586;-74
2022/11/13 05:05:24;;;;;;;11.07;9.07;;;3.30;99.90;;;;;;4965533;28;20983;-74
2022/11/13 05:07:52;;;;;;;10.97;8.93;;;3.20;99.90;;;;;;4965888;28;20465;-72
2022/11/13 05:10:19;;;;;;;10.80;9.33;;;3.20;99.90;;;;;;4965944;28;20939;-74
2022/11/13 05:12:45;;;;;;;9.73;8.83;;;3.20;99.90;;;;;;4965799;28;20971;-74
2022/11/13 05:15:12;;;;;;;13.63;8.20;;;3.20;99.90;;;;;;4965254;28;20469;-74
2022/11/13 05:17:39;;;;;;;11.60;9.57;;;3.20;99.90;;;;;;4967431;28;20813;-73
2022/11/13 05:20:08;;;;;;;15.97;11.13;;;3.10;99.90;;;;;;4969496;28;20964;-74
2022/11/13 05:22:35;;;;;;;11.07;9.70;;;3.00;99.90;;;;;;4969560;28;20871;-73
2022/11/13 05:25:02;;;;;;;12.27;10.40;;;2.90;99.90;;;;;;4968583;28;21100;-74
2022/11/13 05:27:29;;;;;;;13.70;11.33;;;2.80;99.90;;;;;;4969555;28;20475;-74
2022/11/13 05:29:55;;;;;;;13.87;9.70;;;2.70;99.90;;;;;;4969436;28;20504;-74
2022/11/13 05:32:22;;;;;;;12.20;9.17;;;2.70;99.90;;;;;;4969221;28;20484;-73
2022/11/13 05:34:49;;;;;;;26.80;12.60;;;2.70;99.90;;;;;;4969028;28;20949;-73
2022/11/13 05:37:17;;;;;;;11.37;10.20;;;2.70;99.90;;;;;;4969221;28;20469;-74
2022/11/13 05:39:44;;;;;;;53.87;10.20;;;2.70;99.90;;;;;;4969387;28;20956;-74
2022/11/13 05:42:11;;;;;;;14.13;9.30;;;2.60;99.90;;;;;;4969023;28;20476;-73
2022/11/13 05:44:37;;;;;;;10.60;8.70;;;2.50;99.90;;;;;;4968628;28;20895;-73
2022/11/13 05:47:04;;;;;;;9.47;8.30;;;2.50;99.90;;;;;;4969081;28;20461;-74
2022/11/13 05:49:31;;;;;;;19.90;8.90;;;2.40;99.90;;;;;;4969157;28;20496;-73
2022/11/13 05:51:58;;;;;;;16.23;9.23;;;2.40;99.90;;;;;;4969026;28;20485;-74
2022/11/13 05:54:26;;;;;;;17.13;9.10;;;2.30;99.90;;;;;;4968678;28;20472;-72
2022/11/13 05:56:53;;;;;;;13.63;8.90;;;2.30;99.90;;;;;;4969142;28;20463;-73
2022/11/13 05:59:19;;;;;;;59.23;11.30;;;2.30;99.90;;;;;;4968869;28;20464;-73
2022/11/13 06:01:46;;;;;;;37.93;9.73;;;2.30;99.90;;;;;;4968426;28;20492;-72
2022/11/13 06:04:13;;;;;;;10.70;8.70;;;2.10;99.90;;;;;;4968549;28;20456;-73
2022/11/13 06:06:41;;;;;;;12.00;9.17;;;2.10;99.90;;;;;;4969074;28;20567;-74
2022/11/13 06:09:07;;;;;;;12.83;8.40;;;2.10;99.90;;;;;;4968172;28;20499;-73
2022/11/13 06:11:36;;;;;;;15.33;8.97;;;2.10;99.90;;;;;;4968118;28;21310;-73
2022/11/13 06:14:02;;;;;;;105.00;15.53;;;2.10;99.90;;;;;;4968198;28;20964;-74
2022/11/13 06:16:33;;;;;;;35.77;9.93;;;2.00;99.90;;;;;;4968435;28;20555;-73
2022/11/13 06:19:02;;;;;;;20.83;9.97;;;2.00;99.90;;;;;;4968456;28;20925;-73
2022/11/13 06:21:31;;;;;;;13.40;8.80;;;2.00;99.90;;;;;;4967928;28;20476;-73
2022/11/13 06:23:59;;;;;;;11.30;9.43;;;2.00;99.90;;;;;;4967571;28;20460;-73
2022/11/13 06:26:27;;;;;;;17.40;10.90;;;2.10;99.90;;;;;;4968166;28;20456;-74
2022/11/13 06:28:55;;;;;;;40.03;11.83;;;2.20;99.90;;;;;;4968135;28;20503;-73
2022/11/13 06:31:25;;;;;;;11.70;9.60;;;2.20;99.90;;;;;;4968612;28;20480;-73
2022/11/13 06:33:52;;;;;;;46.83;12.50;;;2.20;99.90;;;;;;4968582;28;20463;-76
2022/11/13 06:36:20;;;;;;;32.73;11.70;;;2.30;99.90;;;;;;4971146;28;20460;-77
2022/11/13 06:38:47;;;;;;;50.90;12.80;;;2.30;99.90;;;;;;4970513;28;20457;-78
2022/11/13 06:41:16;;;;;;;16.77;10.83;;;2.20;99.90;;;;;;4970927;28;20481;-78
2022/11/13 06:43:43;;;;;;;18.77;10.53;;;2.30;99.90;;;;;;4970673;28;20670;-77
2022/11/13 06:46:13;;;;;;;17.43;10.03;;;2.30;99.90;;;;;;4970714;28;20460;-76
2022/11/13 06:48:40;;;;;;;44.17;12.13;;;2.40;99.90;;;;;;4968241;28;20488;-75
2022/11/13 06:51:11;;;;;;;20.57;10.63;;;2.40;99.90;;;;;;4967542;28;20480;-76
2022/11/13 06:53:38;;;;;;;15.63;10.27;;;2.40;99.90;;;;;;4968318;28;20453;-76
2022/11/13 06:56:06;;;;;;;15.23;10.97;;;2.50;99.90;;;;;;4968223;28;20467;-76
2022/11/13 06:58:33;;;;;;;13.83;10.80;;;2.50;99.90;;;;;;4969877;28;20957;-77
2022/11/13 07:01:05;;;;;;;12.67;9.47;;;2.50;99.90;;;;;;4969869;28;20611;-75
2022/11/13 07:03:34;;;;;;;54.93;14.10;;;2.50;99.90;;;;;;4969623;28;20457;-77
2022/11/13 07:06:02;;;;;;;13.27;10.13;;;2.50;99.90;;;;;;4968836;28;20471;-76
2022/11/13 07:08:29;;;;;;;16.57;10.80;;;2.50;99.90;;;;;;4969002;28;20467;-74
2022/11/13 07:10:56;;;;;;;13.87;9.70;;;2.60;99.90;;;;;;4969641;28;20480;-76
2022/11/13 07:13:24;;;;;;;18.63;10.83;;;2.60;99.90;;;;;;4969094;28;20461;-64
2022/11/13 07:15:51;;;;;;;28.50;11.23;;;2.60;99.90;;;;;;4966929;28;20471;-64
2022/11/13 07:18:18;;;;;;;24.40;10.63;;;2.60;99.90;;;;;;4967228;28;20832;-73
2022/11/13 07:20:46;;;;;;;18.13;11.07;;;2.60;99.90;;;;;;4970515;28;20481;-77
2022/11/13 07:23:13;;;;;;;14.83;10.20;;;2.50;99.90;;;;;;4970920;28;20462;-77
2022/11/13 07:25:40;;;;;;;12.47;10.00;;;2.50;99.90;;;;;;4969652;28;20465;-76
2022/11/13 07:28:06;;;;;;;10.40;9.13;;;2.50;99.90;;;;;;4970582;28;20459;-77
2022/11/13 07:30:33;;;;;;;13.87;10.90;;;2.60;99.90;;;;;;4970157;28;20504;-77
2022/11/13 07:33:02;;;;;;;16.03;10.10;;;2.60;99.90;;;;;;4970462;28;20524;-77
2022/11/13 07:35:29;;;;;;;54.27;11.97;;;2.60;99.90;;;;;;4970089;28;20571;-78
2022/11/13 07:37:57;;;;;;;28.63;11.30;;;2.50;99.90;;;;;;4970710;28;20465;-78
2022/11/13 07:40:24;;;;;;;14.70;10.80;;;2.40;99.90;;;;;;4969815;28;20448;-77
2022/11/13 07:42:57;;;;;;;74.87;15.83;;;2.40;99.90;;;;;;4970765;28;20468;-77
2022/11/13 07:45:24;;;;;;;31.47;11.30;;;2.30;99.90;;;;;;4970005;28;20516;-77
2022/11/13 07:47:51;;;;;;;18.93;12.80;;;2.20;99.90;;;;;;4971570;28;20818;-76
2022/11/13 07:50:18;;;;;;;72.97;14.80;;;2.10;99.90;;;;;;4972085;28;20505;-75
2022/11/13 07:52:44;;;;;;;15.03;11.93;;;2.10;99.90;;;;;;4969581;28;20457;-76
2022/11/13 07:55:13;;;;;;;34.23;14.00;;;2.10;99.90;;;;;;4969657;28;20835;-77
2022/11/13 07:57:39;;;;;;;18.83;12.50;;;2.10;99.90;;;;;;4969828;28;20460;-77
2022/11/13 08:00:08;;;;;;;54.17;14.93;;;2.10;99.90;;;;;;4969439;28;20492;-78
2022/11/13 08:02:34;;;;;;;36.87;13.23;;;2.10;99.90;;;;;;4969114;28;20485;-75
2022/11/13 08:05:01;;;;;;;19.43;12.30;;;2.00;99.90;;;;;;4968631;28;20472;-78
2022/11/13 08:07:28;;;;;;;18.70;13.63;;;2.00;99.90;;;;;;4969159;28;20464;-77
2022/11/13 08:09:55;;;;;;;18.20;13.10;;;2.10;99.90;;;;;;4969199;28;20460;-77
2022/11/13 08:12:23;;;;;;;17.27;12.50;;;2.00;99.90;;;;;;4968667;28;20481;-77
2022/11/13 08:14:50;;;;;;;56.50;14.70;;;2.10;99.90;;;;;;4968066;28;20476;-74
2022/11/13 08:17:16;;;;;;;15.67;12.40;;;2.20;99.90;;;;;;4967586;28;20452;-76
2022/11/13 08:19:43;;;;;;;19.17;12.00;;;2.20;99.90;;;;;;4967307;28;21083;-75
2022/11/13 08:22:10;;;;;;;22.90;11.73;;;2.30;99.90;;;;;;4968275;28;21240;-76
2022/11/13 08:24:37;;;;;;;20.70;11.27;;;2.30;99.90;;;;;;4967892;28;20838;-77
2022/11/13 08:27:03;;;;;;;56.03;12.17;;;2.20;99.90;;;;;;4967937;28;20460;-74
2022/11/13 08:29:32;;;;;;;43.93;13.70;;;2.10;99.90;;;;;;4968415;28;20471;-76
2022/11/13 08:31:59;;;;;;;60.97;14.97;;;2.20;99.90;;;;;;4967666;28;20480;-77
2022/11/13 08:34:26;;;;;;;57.43;15.17;;;2.10;99.90;;;;;;4966806;28;20456;-78
2022/11/13 08:36:52;;;;;;;39.27;14.20;;;2.10;99.90;;;;;;4967768;28;20468;-74
2022/11/13 08:39:19;;;;;;;54.17;16.10;;;2.10;99.90;;;;;;4966521;28;20500;-78
2022/11/13 08:41:46;;;;;;;26.10;12.23;;;2.00;99.90;;;;;;4968532;28;21015;-78
2022/11/13 08:44:13;;;;;;;23.60;12.50;;;2.00;99.90;;;;;;4967281;28;20456;-76
2022/11/13 08:46:41;;;;;;;22.80;12.43;;;2.00;99.90;;;;;;4968407;28;20460;-78
2022/11/13 08:49:08;;;;;;;47.93;15.00;;;2.00;99.90;;;;;;4968760;28;20467;-77
2022/11/13 08:51:35;;;;;;;26.23;13.27;;;2.00;99.90;;;;;;4968058;28;20850;-78
2022/11/13 08:54:02;;;;;;;56.27;15.20;;;2.00;99.90;;;;;;4971138;28;20460;-78
2022/11/13 08:56:29;;;;;;;180.83;19.93;;;2.00;99.90;;;;;;4971911;28;20471;-77
2022/11/13 08:58:56;;;;;;;29.63;14.60;;;2.00;99.90;;;;;;4971490;28;20945;-77
2022/11/13 09:01:22;;;;;;;15.57;12.10;;;2.00;99.90;;;;;;4971631;28;20489;-78
2022/11/13 09:03:52;;;;;;;87.57;15.80;;;2.00;99.90;;;;;;4972376;28;20456;-78
2022/11/13 09:06:18;;;;;;;19.10;12.93;;;2.10;99.90;;;;;;4971212;28;20456;-78
2022/11/13 09:08:45;;;;;;;19.63;14.00;;;2.20;99.90;;;;;;4972331;28;20459;-77
2022/11/13 09:11:12;;;;;;;26.93;13.77;;;2.40;99.90;;;;;;4971956;28;21438;-78
2022/11/13 09:13:39;;;;;;;22.03;13.57;;;2.50;99.90;;;;;;4971890;28;20456;-78
2022/11/13 09:16:06;;;;;;;43.43;14.43;;;2.40;99.90;;;;;;4970824;28;20457;-78
2022/11/13 09:18:35;;;;;;;26.23;15.00;;;2.50;99.90;;;;;;4970991;28;20826;-78
2022/11/13 09:21:04;;;;;;;21.53;14.23;;;2.50;99.90;;;;;;4971806;28;20562;-75
2022/11/13 09:23:31;;;;;;;26.87;14.30;;;2.50;99.90;;;;;;4972873;28;20561;-78
2022/11/13 09:26:02;;;;;;;20.07;13.90;;;2.50;99.90;;;;;;4972228;28;20465;-78
2022/11/13 09:28:29;;;;;;;20.27;13.90;;;2.50;99.90;;;;;;4972441;28;20464;-76
2022/11/13 09:30:56;;;;;;;26.93;14.77;;;2.60;99.90;;;;;;4973167;28;20473;-78
2022/11/13 09:33:22;;;;;;;29.07;15.97;;;2.70;99.90;;;;;;4970751;28;20479;-76
2022/11/13 09:35:49;;;;;;;18.80;13.27;;;2.70;99.90;;;;;;4972029;28;20464;-78
2022/11/13 09:38:17;;;;;;;38.53;16.13;;;2.80;99.90;;;;;;4974357;28;20464;-78
2022/11/13 09:40:50;;;;;;;18.60;14.23;;;2.90;99.90;;;;;;4973580;28;20500;-77
2022/11/13 09:43:26;;;;;;;23.50;14.83;;;2.90;99.90;;;;;;4973588;28;20436;-76
2022/11/13 09:45:57;;;;;;;26.10;15.90;;;3.10;99.90;;;;;;4971526;28;20456;-78
2022/11/13 09:48:30;;;;;;;24.13;15.67;;;3.20;99.90;;;;;;4972327;28;20457;-78
2022/11/13 09:51:00;;;;;;;25.70;16.20;;;3.30;99.90;;;;;;4971680;28;20508;-77
2022/11/13 09:53:36;;;;;;;29.27;16.60;;;3.40;99.90;;;;;;4971366;28;20441;-78
2022/11/13 09:56:14;;;;;;;20.43;15.07;;;3.40;99.90;;;;;;4970973;28;20450;-78
2022/11/13 09:58:48;;;;;;;21.33;14.50;;;3.40;99.90;;;;;;4971495;28;20460;-78
2022/11/13 10:01:22;;;;;;;20.53;15.23;;;3.40;99.90;;;;;;4972171;28;20531;-77
2022/11/13 10:03:57;;;;;;;18.30;14.60;;;3.50;99.90;;;;;;4970996;28;20464;-78
2022/11/13 10:06:34;;;;;;;16.83;14.03;;;3.60;99.90;;;;;;4971819;28;21020;-77
2022/11/13 10:09:14;;;;;;;21.50;15.50;;;3.60;99.90;;;;;;4971538;28;20906;-78
2022/11/13 10:11:45;;;;;;;22.20;15.17;;;3.90;99.90;;;;;;4971819;28;20488;-78
2022/11/13 10:14:19;;;;;;;18.80;14.03;;;4.20;99.90;;;;;;4971170;28;20441;-78
2022/11/13 10:16:52;;;;;;;17.00;13.73;;;4.30;99.90;;;;;;4972760;28;20456;-78
2022/11/13 10:19:25;;;;;;;17.03;13.60;;;4.30;99.90;;;;;;4972499;28;20460;-77
2022/11/13 10:21:59;;;;;;;18.93;13.57;;;4.40;99.90;;;;;;4972295;28;20472;-77
2022/11/13 10:24:32;;;;;;;18.73;11.83;;;4.50;99.90;;;;;;4972276;28;20467;-77
2022/11/13 10:26:59;;;;;;;18.00;12.17;;;4.60;99.90;;;;;;4972737;28;20456;-77
2022/11/13 10:29:28;;;;;;;18.17;13.40;;;4.80;99.90;;;;;;4973251;28;20460;-79
2022/11/13 10:31:57;;;;;;;16.27;12.97;;;4.80;99.90;;;;;;4976051;28;20495;-78
2022/11/13 10:34:23;;;;;;;15.40;12.20;;;4.90;99.90;;;;;;4975247;28;21027;-79
2022/11/13 10:37:07;;;;;;;15.90;13.03;;;4.90;99.90;;;;;;4974568;28;20983;-77
2022/11/13 10:39:43;;;;;;;16.60;13.20;;;4.90;99.90;;;;;;4975982;28;20444;-78
2022/11/13 10:42:22;;;;;;;13.90;11.47;;;4.90;99.90;;;;;;4975922;28;20468;-78
2022/11/13 10:44:54;;;;;;;15.30;11.57;;;5.00;99.90;;;;;;4976264;28;20500;-78
2022/11/13 10:47:23;;;;;;;14.83;11.30;;;5.10;99.90;;;;;;4976318;28;20456;-78
2022/11/13 10:49:50;;;;;;;15.40;11.73;;;5.20;99.90;;;;;;4976967;28;20565;-78
2022/11/13 10:52:19;;;;;;;16.07;11.37;;;5.30;99.90;;;;;;4976275;28;21392;-78
2022/11/13 10:54:48;;;;;;;14.77;11.43;;;5.40;99.90;;;;;;4976486;28;20519;-78
2022/11/13 10:57:29;;;;;;;18.60;13.00;;;5.50;99.90;;;;;;4977268;28;20547;-78
2022/11/13 10:59:56;;;;;;;15.33;12.00;;;5.60;99.90;;;;;;4966429;28;21037;-65
2022/11/13 11:02:25;;;;;;;17.47;12.80;;;5.70;99.90;;;;;;4966816;28;21004;-65
2022/11/13 11:05:02;;;;;;;16.10;13.67;;;5.80;99.90;;;;;;4966107;28;20519;-65
2022/11/13 11:07:29;;;;;;;19.07;13.17;;;5.80;99.90;;;;;;4966927;28;20459;-65
2022/11/13 11:09:57;;;;;;;19.10;14.23;;;5.80;99.90;;;;;;4966939;28;21263;-65
2022/11/13 11:12:25;;;;;;;19.17;13.73;;;6.00;99.90;;;;;;4967580;28;20852;-77
2022/11/13 11:15:18;;;;;;;15.97;12.70;;;6.10;99.90;;;;;;4966874;28;21400;-77
2022/11/13 11:17:57;;;;;;;14.37;12.27;;;6.50;99.90;;;;;;4969339;28;20441;-77
2022/11/13 11:20:45;;;;;;;15.20;12.77;;;6.70;99.90;;;;;;4968884;28;20881;-77
2022/11/13 11:23:25;;;;;;;12.43;10.93;;;6.70;99.90;;;;;;4968794;28;20941;-78
2022/11/13 11:25:57;;;;;;;14.52;11.43;;;7.00;99.90;;;;;;4967726;28;20442;-78
2022/11/13 11:28:31;;;;;;;18.50;13.57;;;7.20;99.90;;;;;;4968220;28;20646;-76
2022/11/13 11:31:05;;;;;;;13.80;10.57;;;7.40;99.90;;;;;;4968603;28;20514;-77
2022/11/13 11:33:36;;;;;;;13.27;10.17;;;7.70;99.90;;;;;;4968228;28;20451;-77
2022/11/13 11:36:13;;;;;;;13.10;11.20;;;7.90;99.90;;;;;;4968029;28;20452;-76
2022/11/13 11:38:50;;;;;;;15.47;11.07;;;8.20;99.90;;;;;;4968327;28;20470;-77
2022/11/13 11:41:24;;;;;;;15.17;11.20;;;8.40;99.90;;;;;;4968989;28;20500;-77
2022/11/13 11:44:00;;;;;;;14.70;11.30;;;8.70;99.90;;;;;;4968300;28;20471;-78
2022/11/13 11:46:29;;;;;;;12.63;9.90;;;8.90;99.90;;;;;;4969001;28;21034;-79
2022/11/13 11:48:59;;;;;;;11.60;9.73;;;9.20;99.90;;;;;;4968784;28;20487;-77
2022/11/13 11:51:31;;;;;;;11.53;9.40;;;9.60;99.90;;;;;;4968833;28;21332;-77
2022/11/13 11:54:05;;;;;;;9.50;8.57;;;9.80;99.90;;;;;;4968360;28;20453;-77
2022/11/13 11:56:37;;;;;;;9.60;8.37;;;10.30;99.90;;;;;;4968802;28;20470;-77
2022/11/13 11:59:22;;;;;;;12.90;8.43;;;10.40;99.90;;;;;;4969168;28;20492;-77
2022/11/13 12:02:17;;;;;;;9.07;8.17;;;10.40;99.90;;;;;;4968220;28;20510;-79
2022/11/13 12:05:00;;;;;;;9.43;8.47;;;10.40;99.90;;;;;;4947992;28;20468;-77
2022/11/13 12:07:34;;;;;;;10.10;8.63;;;10.40;99.90;;;;;;4968914;28;20952;-78
2022/11/13 12:10:09;;;;;;;12.03;9.23;;;10.50;99.90;;;;;;4967153;28;20793;-77
2022/11/13 12:12:57;;;;;;;11.80;9.00;;;10.50;99.90;;;;;;4967663;28;20511;-78
2022/11/13 12:15:30;;;;;;;19.73;14.90;;;10.40;99.90;;;;;;4966708;28;20456;-77
2022/11/13 12:18:06;;;;;;;11.67;9.20;;;10.50;99.90;;;;;;4968039;28;20965;-78
2022/11/13 12:20:42;;;;;;;9.87;8.47;;;10.60;99.90;;;;;;4967832;28;20519;-78
2022/11/13 12:23:25;;;;;;;17.50;12.63;;;10.70;99.90;;;;;;4967501;28;20921;-78
2022/11/13 12:25:55;;;;;;;9.80;8.70;;;10.70;99.90;;;;;;4967420;28;20461;-78
2022/11/13 12:28:31;;;;;;;11.20;9.60;;;11.20;99.90;;;;;;4968185;28;20442;-78
2022/11/13 12:31:08;;;;;;;11.20;9.57;;;11.30;99.90;;;;;;4967599;28;20479;-78
2022/11/13 12:33:44;;;;;;;11.33;9.67;;;11.30;99.90;;;;;;4964222;28;20879;-78
2022/11/13 12:36:13;;;;;;;11.33;8.90;;;11.20;99.90;;;;;;4963512;28;20457;-78
2022/11/13 12:38:45;;;;;;;10.40;8.73;;;11.20;99.90;;;;;;4967747;28;20453;-78
2022/11/13 12:41:18;;;;;;;15.23;10.53;;;11.20;99.90;;;;;;4967551;28;20523;-78
2022/11/13 12:44:03;;;;;;;11.83;9.33;;;11.30;99.90;;;;;;4966883;28;20497;-77
2022/11/13 12:46:35;;;;;;;15.60;9.50;;;11.40;99.90;;;;;;4966362;28;20449;-78
2022/11/13 12:49:04;;;;;;;16.83;11.07;;;11.60;99.90;;;;;;4967442;28;20456;-77
2022/11/13 12:51:39;;;;;;;11.70;9.23;;;11.60;99.90;;;;;;4967021;28;20477;-78
2022/11/13 12:54:06;;;;;;;14.30;11.97;;;11.70;99.90;;;;;;4967342;28;20538;-78
2022/11/13 12:56:33;;;;;;;13.67;10.67;;;11.80;99.90;;;;;;4971782;28;20463;-78
2022/11/13 12:59:06;;;;;;;11.30;9.60;;;11.80;99.90;;;;;;4968086;28;20971;-78
2022/11/13 13:01:35;;;;;;;9.70;8.70;;;11.80;99.90;;;;;;4968962;28;20511;-79
2022/11/13 13:04:25;;;;;;;11.63;9.93;;;11.90;99.90;;;;;;4968568;28;20456;-78
2022/11/13 13:07:05;;;;;;;10.17;9.07;;;12.00;99.90;;;;;;4969282;28;20491;-79
2022/11/13 13:09:47;;;;;;;10.23;8.93;;;12.30;99.90;;;;;;4969191;28;20459;-78
2022/11/13 13:12:21;;;;;;;14.93;9.97;;;12.60;99.90;;;;;;4969302;28;20481;-78
2022/11/13 13:15:08;;;;;;;10.63;9.30;;;13.00;99.90;;;;;;4967913;28;20448;-78
2022/11/13 13:17:35;;;;;;;11.20;9.50;;;13.20;99.90;;;;;;4968651;28;20449;-79
2022/11/13 13:20:05;;;;;;;10.70;8.77;;;13.40;99.90;;;;;;4967870;28;20460;-77
2022/11/13 13:22:34;;;;;;;10.60;9.50;;;13.30;99.90;;;;;;4967941;28;20481;-78
2022/11/13 13:25:03;;;;;;;9.60;8.37;;;13.20;99.90;;;;;;4967248;28;20469;-78
2022/11/13 13:27:35;;;;;;;11.97;9.70;;;13.10;99.90;;;;;;4967633;28;20460;-77
2022/11/13 13:30:16;;;;;;;9.63;8.50;;;13.00;99.90;;;;;;4967890;28;20471;-78
2022/11/13 13:32:54;;;;;;;13.03;9.77;;;13.10;99.90;;;;;;4967122;28;20447;-75
2022/11/13 13:35:27;;;;;;;9.20;8.20;;;13.10;99.90;;;;;;4967771;28;20468;-78
2022/11/13 13:38:00;;;;;;;10.00;8.80;;;13.00;99.90;;;;;;4968629;28;20447;-76
2022/11/13 13:40:37;;;;;;;10.60;9.03;;;12.90;99.90;;;;;;4971033;28;21260;-77
2022/11/13 13:43:23;;;;;;;10.43;9.33;;;12.80;99.90;;;;;;4971283;28;20456;-78
2022/11/13 13:46:00;;;;;;;11.80;10.00;;;12.70;99.90;;;;;;4969219;28;20463;-77
2022/11/13 13:48:30;;;;;;;10.83;9.63;;;12.70;99.90;;;;;;4969982;28;20863;-76
2022/11/13 13:50:59;;;;;;;12.67;10.33;;;12.70;99.90;;;;;;4969328;28;20484;-75
2022/11/13 13:53:30;;;;;;;14.33;9.97;;;12.70;99.90;;;;;;4969885;28;20840;-76
2022/11/13 13:55:59;;;;;;;11.70;10.50;;;12.60;99.90;;;;;;4969062;28;20495;-76
2022/11/13 13:58:28;;;;;;;11.97;10.43;;;12.60;99.90;;;;;;4969417;28;20467;-76
2022/11/13 14:00:58;;;;;;;13.03;10.20;;;12.50;99.90;;;;;;4968981;28;21012;-76
2022/11/13 14:03:27;;;;;;;13.03;10.80;;;12.50;99.90;;;;;;4969389;28;20519;-76
2022/11/13 14:05:55;;;;;;;10.77;9.50;;;12.60;99.90;;;;;;4968868;28;21000;-76
2022/11/13 14:08:24;;;;;;;11.00;9.30;;;12.80;99.90;;;;;;4969306;28;20460;-76
2022/11/13 14:10:51;;;;;;;9.80;8.70;;;13.00;99.90;;;;;;4969513;28;20567;-75
2022/11/13 14:13:24;;;;;;;10.37;9.27;;;13.00;99.90;;;;;;4969341;28;20460;-76
2022/11/13 14:16:02;;;;;;;10.87;9.73;;;13.00;99.90;;;;;;4968309;28;20480;-77
2022/11/13 14:18:29;;;;;;;12.40;10.13;;;12.90;99.90;;;;;;4968604;28;20499;-76
2022/11/13 14:20:58;;;;;;;11.23;9.70;;;12.90;99.90;;;;;;4968404;28;20508;-75
2022/11/13 14:23:28;;;;;;;11.30;9.90;;;12.80;99.90;;;;;;4968416;28;20970;-75
2022/11/13 14:25:55;;;;;;;10.43;8.70;;;12.70;99.90;;;;;;4967846;28;21032;-75
2022/11/13 14:28:24;;;;;;;9.57;8.57;;;12.70;99.90;;;;;;4968823;28;20465;-76
2022/11/13 14:30:56;;;;;;;10.97;8.97;;;12.80;99.90;;;;;;4968959;28;20483;-75
2022/11/13 14:33:30;;;;;;;11.97;10.83;;;12.80;99.90;;;;;;4968411;28;20464;-76
2022/11/13 14:35:57;;;;;;;14.70;10.13;;;12.90;99.90;;;;;;4968132;28;20440;-76
2022/11/13 14:38:27;;;;;;;10.30;9.23;;;13.00;99.90;;;;;;4968746;28;20456;-77
2022/11/13 14:40:54;;;;;;;10.93;9.67;;;12.90;99.90;;;;;;4968603;28;20500;-77
2022/11/13 14:43:25;;;;;;;11.80;8.90;;;12.90;99.90;;;;;;4969162;28;20509;-75
2022/11/13 14:45:55;;;;;;;10.80;9.70;;;13.00;99.90;;;;;;4969601;28;20456;-77
2022/11/13 14:48:32;;;;;;;12.60;10.13;;;13.00;99.90;;;;;;4969800;28;20460;-77
2022/11/13 14:51:01;;;;;;;28.60;22.70;;;12.90;99.90;;;;;;4970777;28;20472;-78
2022/11/13 14:53:31;;;;;;;13.03;10.93;;;12.80;99.90;;;;;;4970715;28;20471;-78
2022/11/13 14:56:00;;;;;;;10.63;9.53;;;12.70;99.90;;;;;;4969859;28;20461;-78
2022/11/13 14:58:28;;;;;;;14.13;10.57;;;12.60;99.90;;;;;;4970608;28;20495;-77
2022/11/13 15:00:56;;;;;;;10.63;9.30;;;12.60;99.90;;;;;;4970198;28;20504;-78
2022/11/13 15:03:23;;;;;;;10.90;9.10;;;12.60;99.90;;;;;;4970891;28;20464;-78
2022/11/13 15:05:52;;;;;;;13.60;11.20;;;12.60;99.90;;;;;;4970479;28;20461;-78
2022/11/13 15:08:19;;;;;;;13.50;11.40;;;12.70;99.90;;;;;;4970841;28;20457;-78
2022/11/13 15:10:45;;;;;;;14.37;11.40;;;12.60;99.90;;;;;;4970883;28;20483;-77
2022/11/13 15:13:14;;;;;;;14.53;12.23;;;12.60;99.90;;;;;;4970200;28;20471;-78
2022/11/13 15:15:41;;;;;;;14.40;11.60;;;12.50;99.90;;;;;;4969958;28;20460;-77
2022/11/13 15:18:13;;;;;;;12.73;11.07;;;12.40;99.90;;;;;;4969391;28;20464;-77
2022/11/13 15:20:42;;;;;;;15.30;13.17;;;12.30;99.90;;;;;;4969303;28;20535;-77
2022/11/13 15:23:13;;;;;;;17.50;14.57;;;12.10;99.90;;;;;;4968780;28;20957;-77
2022/11/13 15:25:39;;;;;;;19.80;15.23;;;12.10;99.90;;;;;;4968500;28;20463;-78
2022/11/13 15:28:06;;;;;;;19.20;15.40;;;12.00;99.90;;;;;;4969506;28;20464;-77
2022/11/13 15:30:33;;;;;;;19.40;15.40;;;11.90;99.90;;;;;;4969730;28;20481;-77
2022/11/13 15:33:01;;;;;;;20.93;15.20;;;11.90;99.90;;;;;;4967832;28;20491;-77
2022/11/13 15:35:28;;;;;;;19.10;14.50;;;11.80;99.90;;;;;;4965998;28;20459;-77
2022/11/13 15:37:55;;;;;;;18.00;16.10;;;11.70;99.90;;;;;;4966442;28;20473;-76
2022/11/13 15:40:23;;;;;;;17.07;13.90;;;11.70;99.90;;;;;;4966721;28;21106;-77
2022/11/13 15:42:50;;;;;;;15.53;13.13;;;11.60;99.90;;;;;;4967962;28;20496;-77
2022/11/13 15:45:17;;;;;;;18.70;14.43;;;11.50;99.90;;;;;;4966782;28;21431;-76
2022/11/13 15:47:44;;;;;;;17.80;13.30;;;11.40;99.90;;;;;;4967691;28;20469;-76
2022/11/13 15:50:11;;;;;;;15.97;13.10;;;11.40;99.90;;;;;;4968169;28;20464;-77
2022/11/13 15:52:40;;;;;;;15.53;13.20;;;11.30;99.90;;;;;;4967761;28;20466;-77
2022/11/13 15:55:20;;;;;;;17.60;13.67;;;11.20;99.90;;;;;;4967699;28;20461;-77
2022/11/13 15:57:49;;;;;;;20.57;14.83;;;11.10;99.90;;;;;;4968003;28;20440;-77
2022/11/13 16:00:20;;;;;;;34.30;22.80;;;11.20;99.90;;;;;;4967566;28;20471;-77
2022/11/13 16:02:49;;;;;;;36.30;26.30;;;11.20;99.90;;;;;;4967173;28;20542;-77
2022/11/13 16:05:16;;;;;;;27.00;19.47;;;11.20;99.90;;;;;;4976210;28;20466;-77
2022/11/13 16:07:43;;;;;;;27.20;19.37;;;11.20;99.90;;;;;;4968746;28;20535;-77
2022/11/13 16:10:10;;;;;;;23.70;17.47;;;11.00;99.90;;;;;;4967285;28;20460;-76
2022/11/13 16:12:37;;;;;;;22.63;17.47;;;10.90;99.90;;;;;;4967259;28;20475;-77
2022/11/13 16:15:06;;;;;;;22.17;17.17;;;10.80;99.90;;;;;;4966432;28;20460;-76
2022/11/13 16:17:40;;;;;;;21.80;16.07;;;10.70;99.90;;;;;;4967210;28;20449;-73
2022/11/13 16:20:11;;;;;;;24.30;16.60;;;10.50;99.90;;;;;;4966977;28;20460;-75
2022/11/13 16:22:38;;;;;;;23.20;17.17;;;10.40;99.90;;;;;;4964936;28;20507;-75
2022/11/13 16:25:07;;;;;;;24.23;17.43;;;10.30;99.90;;;;;;4965018;28;20453;-74
2022/11/13 16:27:34;;;;;;;20.20;14.47;;;10.30;99.90;;;;;;4966507;28;20468;-75
2022/11/13 16:30:01;;;;;;;20.00;15.40;;;10.10;99.90;;;;;;4966687;28;20980;-76
2022/11/13 16:32:29;;;;;;;20.10;14.77;;;10.10;99.90;;;;;;4966426;28;20468;-75
2022/11/13 16:34:56;;;;;;;15.90;13.77;;;10.00;99.90;;;;;;4966221;28;20464;-75
2022/11/13 16:37:24;;;;;;;16.60;13.10;;;9.90;99.90;;;;;;4965348;28;20469;-75
2022/11/13 16:39:51;;;;;;;17.80;13.93;;;9.80;99.90;;;;;;4966297;28;20464;-76
2022/11/13 16:42:18;;;;;;;18.43;13.50;;;9.80;99.90;;;;;;4966478;28;20875;-75
2022/11/13 16:44:45;;;;;;;20.40;14.43;;;9.70;99.90;;;;;;4965379;28;20465;-75
2022/11/13 16:47:26;;;;;;;18.70;14.10;;;9.60;99.90;;;;;;4966125;28;20992;-76
2022/11/13 16:49:54;;;;;;;15.50;13.73;;;9.50;99.90;;;;;;4966440;28;20472;-76
2022/11/13 16:52:21;;;;;;;16.73;14.00;;;9.50;99.90;;;;;;4966442;28;20484;-75
2022/11/13 16:54:50;;;;;;;18.30;14.10;;;9.40;99.90;;;;;;4965717;28;20460;-76
2022/11/13 16:57:17;;;;;;;18.27;14.67;;;9.40;99.90;;;;;;4966593;28;20469;-76
2022/11/13 16:59:44;;;;;;;22.23;16.60;;;9.30;99.90;;;;;;4966845;28;20464;-77
2022/11/13 17:02:14;;;;;;;19.20;15.53;;;9.30;99.90;;;;;;4965938;28;20511;-76
2022/11/13 17:04:41;;;;;;;20.43;15.43;;;9.20;99.90;;;;;;4965393;28;20589;-76
2022/11/13 17:07:12;;;;;;;20.57;16.03;;;9.20;99.90;;;;;;4966226;28;20553;-76
2022/11/13 17:09:40;;;;;;;26.30;17.73;;;9.20;99.90;;;;;;4965976;28;20925;-76
2022/11/13 17:12:08;;;;;;;20.10;16.27;;;9.20;99.90;;;;;;4966268;28;20472;-76
2022/11/13 17:14:35;;;;;;;22.50;17.37;;;9.10;99.90;;;;;;4968868;28;20902;-76
2022/11/13 17:17:01;;;;;;;22.23;17.73;;;9.00;99.90;;;;;;4969990;28;20463;-76
2022/11/13 17:19:28;;;;;;;25.20;19.40;;;9.00;99.90;;;;;;4969772;28;20464;-76
2022/11/13 17:21:55;;;;;;;24.67;19.43;;;9.00;99.90;;;;;;4969665;28;20505;-76
2022/11/13 17:24:24;;;;;;;26.33;19.87;;;8.90;99.90;;;;;;4967332;28;20470;-75
2022/11/13 17:26:50;;;;;;;28.77;20.80;;;8.90;99.90;;;;;;4970882;28;20468;-76
2022/11/13 17:29:18;;;;;;;33.90;23.90;;;8.80;99.90;;;;;;4969339;28;20456;-76
2022/11/13 17:31:45;;;;;;;31.07;22.43;;;8.70;99.90;;;;;;4968392;28;21086;-74
2022/11/13 17:34:12;;;;;;;28.33;21.83;;;8.60;99.90;;;;;;4968718;28;20458;-78
2022/11/13 17:36:38;;;;;;;28.50;22.47;;;8.60;99.90;;;;;;4971884;28;20475;-78
2022/11/13 17:39:05;;;;;;;26.27;20.90;;;8.50;99.90;;;;;;4970099;28;20452;-77
2022/11/13 17:41:34;;;;;;;26.37;21.53;;;8.40;99.90;;;;;;4972434;28;20494;-78
2022/11/13 17:44:00;;;;;;;31.37;22.30;;;8.40;99.90;;;;;;4970128;28;20479;-77
2022/11/13 17:46:27;;;;;;;29.20;21.73;;;8.40;99.90;;;;;;4970855;28;20465;-77
2022/11/13 17:48:54;;;;;;;30.87;22.90;;;8.40;99.90;;;;;;4969052;28;20457;-78
2022/11/13 17:51:21;;;;;;;40.83;29.50;;;8.40;99.90;;;;;;4969186;28;20483;-76